Quantcast Appendix F: Figures for Examination

 

Click here to make tpub.com your Home Page

Page Title: Appendix F: Figures for Examination
Back | Up | Next

Click here for thousands of PDF manuals

Google


Web
www.tpub.com

Home

   
Information Categories
.... Administration
Advancement
Aerographer
Automotive
Aviation
Construction
Diving
Draftsman
Engineering
Electronics
Food and Cooking
Logistics
Math
Medical
Music
Nuclear Fundamentals
Photography
Religion
   
   

 



APPENDIX F
FIGURES FOR EXAMINATION
KCBM 151755Z 00000KT 10SM SCT012 BKN029 OVC120 M06/M07 A2998 RMK IR18
SLP156
KFFO 100056Z 01023G35KT 1/2SM -SN BLSN SCT000 OVC005 M01/M03 A2964
RMK VIS3/8V5/8 BLSN SCT000 CIG004V006 SLP034
KHAR 151757Z 05015G22KT 1 1/2SM RA BR BKN011 OVC015 07/05 A2986 RMK
PK WND 05025/32 SLP112
KNBU 202258Z 28017G27KT 3/4SM SHSN BLSN VV008 M14/M17 A2952 RMK PK
WND 28037/47 SNB30 SLP997
KOZR 081255Z 22012G16KT 15SM OVC017 23/17 A2987 RMK TOPS OVC045
SLP115 RADAT 87052
KPAM 151757Z 17015G22KT 5SM HZ SCT007 BKN040 OVC050 22/21 A2998 RMK
SCT007VBKN SLP125
KRDR 151756Z 09009KT 15SM SCT050 BKN090 OVC200 M15/M18 A2997 RMK
PSR09P SLP149
KTIK 150856Z 09009KT 1 1/4SM R22L/600V1000FT DZ BR VV003 A2999 RMK
SLP156
Figure F-1 Sample METAR Printout
FIGURES FOR EXAMINATIONS
F-1


Privacy Statement - Press Release - Copyright Information. - Contact Us

Integrated Publishing, Inc.
6230 Stone Rd, Unit Q Port Richey, FL 34668

Phone For Parts Inquiries: (727) 493-0744
Google +